Mulino, Oregon
Current Conditions -  °F | °C
As of 2:21 PM on Sunday 21 Dec 2014 (Local Time) from KUAO Reporting Station
Overcast Overcast  
Wind Chill: 53°   Ceiling: 3100
Heat Index: 53°   Visibility: 10mi
Dew Point: 50°   Wind: 10mph
Humidity: 89%   Direction: 190°S
Pressure: 30.1"   Gusts: NA
Location:  45.22°N, 122.58°W
Report Text: KUAO 212221Z AUTO 19009KT 10SM FEW022 BKN031 OVC050 12/10 A3010 RMK AO2 RAB2158E08 P0000 T01170100
Loading
Personal Weather Stations






























Interactive Weather Map New forecast layout! Learn more

10-Day Weather Forecast

Advertisements
Track Severe Weather on mobile